Time,TemperatureF,DewpointF,PressureIn,WindDirection,WindDirectionDegrees,WindSpeedMPH,WindSpeedGustMPH,Humidity,HourlyPrecipIn,Conditions,Clouds,dailyrainin,SoftwareType,DateUTC
2013-08-05 19:00:00,87.6,60.3,29.26,West,270,12.3,12.3,40,0.00,,---,0.00,VWS V14.01,2013-08-06 00:00:00,
2013-08-05 19:01:00,87.4,60.2,29.26,West,270,12.3,12.3,40,0.00,,---,0.00,VWS V14.01,2013-08-06 00:01:00,
2013-08-05 19:02:00,87.4,60.2,29.26,West,270,12.3,12.3,40,0.00,,---,0.00,VWS V14.01,2013-08-06 00:02:00,
2013-08-05 19:03:00,87.3,60.7,29.26,West,270,12.3,12.3,41,0.00,,---,0.00,VWS V14.01,2013-08-06 00:03:00,
2013-08-05 19:11:00,87.1,61.2,29.26,West,270,12.3,12.3,42,0.00,,---,0.00,VWS V14.01,2013-08-06 00:11:00,
2013-08-05 19:12:00,86.9,61.1,29.26,West,270,12.3,12.3,42,0.00,,---,0.00,VWS V14.01,2013-08-06 00:12:00,
2013-08-05 19:13:00,86.9,61.1,29.26,West,270,12.3,12.3,42,0.00,,---,0.00,VWS V14.01,2013-08-06 00:13:00,
2013-08-05 19:15:00,86.9,61.1,29.26,West,270,12.3,12.3,42,0.00,,---,0.00,VWS V14.01,2013-08-06 00:15:00,
2013-08-05 19:17:00,86.7,60.9,29.26,West,270,12.3,12.3,42,0.00,,---,0.00,VWS V14.01,2013-08-06 00:17:00,
2013-08-05 19:18:00,86.7,61.6,29.29,West,270,12.3,12.3,43,0.00,,---,0.00,VWS V14.01,2013-08-06 00:18:00,
2013-08-05 19:20:00,86.5,61.4,29.29,West,270,12.3,12.3,43,0.00,,---,0.00,VWS V14.01,2013-08-06 00:20:00,
2013-08-05 19:22:00,86.4,60.6,29.29,West,270,12.3,12.3,42,0.00,,---,0.00,VWS V14.01,2013-08-06 00:22:00,
2013-08-05 19:23:00,86.4,61.2,29.29,West,270,12.3,12.3,43,0.00,,---,0.00,VWS V14.01,2013-08-06 00:23:00,
2013-08-05 19:24:00,86.2,61.1,29.29,West,270,12.3,12.3,43,0.00,,---,0.00,VWS V14.01,2013-08-06 00:24:00,
2013-08-05 19:25:00,86.2,61.1,29.29,West,270,12.3,12.3,43,0.00,,---,0.00,VWS V14.01,2013-08-06 00:25:00,
2013-08-05 19:26:00,86.2,60.4,29.29,West,270,12.3,12.3,42,0.00,,---,0.00,VWS V14.01,2013-08-06 00:26:00,
2013-08-05 19:28:00,86.2,61.1,29.29,West,270,12.3,12.3,43,0.00,,---,0.00,VWS V14.01,2013-08-06 00:28:00,
2013-08-05 19:29:00,86.0,60.9,29.29,West,270,12.3,12.3,43,0.00,,---,0.00,VWS V14.01,2013-08-06 00:29:00,
2013-08-05 19:31:00,86.0,60.9,29.29,West,270,12.3,12.3,43,0.00,,---,0.00,VWS V14.01,2013-08-06 00:31:00,
2013-08-05 19:32:00,85.8,60.8,29.29,West,270,12.3,12.3,43,0.00,,---,0.00,VWS V14.01,2013-08-06 00:32:00,
2013-08-05 19:33:00,85.8,61.4,29.29,West,270,12.3,12.3,44,0.00,,---,0.00,VWS V14.01,2013-08-06 00:33:00,
2013-08-05 19:34:00,85.8,60.8,29.29,West,270,12.3,12.3,43,0.00,,---,0.00,VWS V14.01,2013-08-06 00:34:00,
2013-08-05 19:35:00,85.8,60.8,29.29,West,270,12.3,12.3,43,0.00,,---,0.00,VWS V14.01,2013-08-06 00:35:00,
2013-08-05 19:36:00,85.6,61.2,29.29,West,270,12.3,12.3,44,0.00,,---,0.00,VWS V14.01,2013-08-06 00:36:00,
2013-08-05 19:38:00,85.5,61.1,29.29,West,270,12.3,12.3,44,0.00,,---,0.00,VWS V14.01,2013-08-06 00:38:00,
2013-08-05 19:40:00,85.5,61.1,29.29,West,270,12.3,12.3,44,0.00,,---,0.00,VWS V14.01,2013-08-06 00:40:00,
2013-08-05 19:41:00,85.5,61.1,29.29,West,270,12.3,12.3,44,0.00,,---,0.00,VWS V14.01,2013-08-06 00:41:00,
2013-08-05 19:42:00,85.5,61.1,29.29,West,270,12.3,12.3,44,0.00,,---,0.00,VWS V14.01,2013-08-06 00:42:00,
2013-08-05 19:43:00,85.3,60.9,29.29,West,270,12.3,12.3,44,0.00,,---,0.00,VWS V14.01,2013-08-06 00:43:00,
2013-08-05 19:45:00,85.3,60.9,29.29,West,270,12.3,12.3,44,0.00,,---,0.00,VWS V14.01,2013-08-06 00:45:00,
2013-08-05 19:46:00,85.3,60.9,29.29,West,270,12.3,12.3,44,0.00,,---,0.00,VWS V14.01,2013-08-06 00:46:00,
2013-08-05 19:47:00,85.1,60.8,29.29,West,270,12.3,12.3,44,0.00,,---,0.00,VWS V14.01,2013-08-06 00:47:00,
2013-08-05 19:50:00,85.1,60.8,29.29,West,270,12.3,12.3,44,0.00,,---,0.00,VWS V14.01,2013-08-06 00:50:00,
2013-08-05 19:51:00,84.9,61.2,29.29,West,270,12.3,12.3,45,0.00,,---,0.00,VWS V14.01,2013-08-06 00:51:00,
2013-08-05 19:52:00,84.9,60.6,29.29,West,270,12.3,12.3,44,0.00,,---,0.00,VWS V14.01,2013-08-06 00:52:00,
2013-08-05 19:53:00,84.9,61.2,29.29,West,270,12.3,12.3,45,0.00,,---,0.00,VWS V14.01,2013-08-06 00:53:00,
2013-08-05 19:54:00,84.7,61.7,29.29,West,270,12.3,12.3,46,0.00,,---,0.00,VWS V14.01,2013-08-06 00:54:00,
2013-08-05 19:55:00,84.7,61.7,29.29,West,270,12.3,12.3,46,0.00,,---,0.00,VWS V14.01,2013-08-06 00:55:00,
2013-08-05 19:56:00,84.7,61.1,29.29,West,270,12.3,12.3,45,0.00,,---,0.00,VWS V14.01,2013-08-06 00:56:00,
2013-08-05 19:57:00,84.6,60.9,29.29,West,270,12.3,12.3,45,0.00,,---,0.00,VWS V14.01,2013-08-06 00:57:00,
2013-08-05 19:58:00,84.6,60.9,29.29,West,270,12.3,12.3,45,0.00,,---,0.00,VWS V14.01,2013-08-06 00:58:00,
2013-08-05 19:59:00,84.6,61.5,29.29,West,270,12.3,12.3,46,0.00,,---,0.00,VWS V14.01,2013-08-06 00:59:00,
2013-08-05 20:00:00,84.6,61.5,29.29,West,270,12.3,12.3,46,0.00,,---,0.00,VWS V14.01,2013-08-06 01:00:00,
2013-08-05 20:01:00,84.4,62.6,29.29,West,270,12.3,12.3,48,0.00,,---,0.00,VWS V14.01,2013-08-06 01:01:00,
2013-08-05 20:02:00,84.4,62.6,29.29,West,270,12.3,12.3,48,0.00,,---,0.00,VWS V14.01,2013-08-06 01:02:00,
2013-08-05 20:03:00,84.4,62.6,29.29,West,270,12.3,12.3,48,0.00,,---,0.00,VWS V14.01,2013-08-06 01:03:00,
2013-08-05 20:05:00,84.2,62.4,29.29,West,270,12.3,12.3,48,0.00,,---,0.00,VWS V14.01,2013-08-06 01:05:00,
2013-08-05 20:06:00,84.2,62.4,29.29,West,270,12.3,12.3,48,0.00,,---,0.00,VWS V14.01,2013-08-06 01:06:00,
2013-08-05 20:07:00,84.0,63.4,29.29,West,270,12.3,12.3,50,0.00,,---,0.00,VWS V14.01,2013-08-06 01:07:00,
2013-08-05 20:09:00,83.8,62.7,29.29,West,270,12.3,12.3,49,0.00,,---,0.00,VWS V14.01,2013-08-06 01:09:00,
2013-08-05 20:10:00,83.8,62.7,29.29,West,270,12.3,12.3,49,0.00,,---,0.00,VWS V14.01,2013-08-06 01:10:00,
2013-08-05 20:12:00,83.8,62.7,29.29,West,270,12.3,12.3,49,0.00,,---,0.00,VWS V14.01,2013-08-06 01:12:00,
2013-08-05 20:15:00,83.7,63.1,29.29,West,270,12.3,12.3,50,0.00,,---,0.00,VWS V14.01,2013-08-06 01:15:00,
2013-08-05 20:17:00,83.7,63.6,29.29,West,270,12.3,12.3,51,0.00,,---,0.00,VWS V14.01,2013-08-06 01:17:00,
2013-08-05 20:18:00,83.7,63.6,29.29,West,270,12.3,12.3,51,0.00,,---,0.00,VWS V14.01,2013-08-06 01:18:00,
2013-08-05 20:20:00,83.7,63.6,29.29,West,270,12.3,12.3,51,0.00,,---,0.00,VWS V14.01,2013-08-06 01:20:00,
2013-08-05 20:22:00,83.3,62.7,29.29,West,270,12.3,12.3,50,0.00,,---,0.00,VWS V14.01,2013-08-06 01:22:00,
2013-08-05 20:23:00,83.3,62.7,29.29,West,270,12.3,12.3,50,0.00,,---,0.00,VWS V14.01,2013-08-06 01:23:00,
2013-08-05 20:24:00,83.3,62.7,29.29,West,270,12.3,12.3,50,0.00,,---,0.00,VWS V14.01,2013-08-06 01:24:00,
2013-08-05 20:25:00,83.3,62.7,29.29,West,270,12.3,12.3,50,0.00,,---,0.00,VWS V14.01,2013-08-06 01:25:00,
2013-08-05 20:28:00,83.3,63.9,29.29,West,270,12.3,12.3,52,0.00,,---,0.00,VWS V14.01,2013-08-06 01:28:00,
2013-08-05 20:35:00,82.9,64.1,29.32,West,270,12.3,12.3,53,0.00,,---,0.00,VWS V14.01,2013-08-06 01:35:00,
2013-08-05 20:39:00,82.8,63.9,29.32,West,270,12.3,12.3,53,0.00,,---,0.00,VWS V14.01,2013-08-06 01:39:00,
2013-08-05 20:43:00,82.8,63.9,29.32,West,270,12.3,12.3,53,0.00,,---,0.00,VWS V14.01,2013-08-06 01:43:00,
2013-08-05 20:45:00,82.8,63.9,29.32,West,270,12.3,12.3,53,0.00,,---,0.00,VWS V14.01,2013-08-06 01:45:00,
2013-08-05 20:50:00,82.6,64.3,29.32,West,270,12.3,12.3,54,0.00,,---,0.00,VWS V14.01,2013-08-06 01:50:00,
2013-08-05 21:05:00,84.0,63.4,29.29,West,270,12.3,12.3,50,0.00,,---,0.00,VWS V14.01,2013-08-06 02:05:00,
2013-08-05 21:10:00,83.7,63.1,29.29,West,270,12.3,12.3,50,0.00,,---,0.00,VWS V14.01,2013-08-06 02:10:00,
2013-08-05 21:17:00,83.5,62.9,29.29,West,270,12.3,12.3,50,0.00,,---,0.00,VWS V14.01,2013-08-06 02:17:00,
2013-08-05 21:26:00,83.3,64.4,29.29,West,270,12.3,12.3,53,0.00,,---,0.00,VWS V14.01,2013-08-06 02:26:00,
2013-08-05 21:31:00,83.1,64.2,29.32,West,270,12.3,12.3,53,0.00,,---,0.00,VWS V14.01,2013-08-06 02:31:00,
2013-08-05 21:36:00,82.8,63.9,29.32,West,270,12.3,12.3,53,0.00,,---,0.00,VWS V14.01,2013-08-06 02:36:00,
2013-08-05 21:43:00,82.6,63.7,29.32,West,270,12.3,12.3,53,0.00,,---,0.00,VWS V14.01,2013-08-06 02:43:00,
2013-08-05 21:48:00,82.6,64.3,29.32,West,270,12.3,12.3,54,0.00,,---,0.00,VWS V14.01,2013-08-06 02:48:00,
2013-08-05 21:54:00,82.4,64.6,29.32,West,270,12.3,12.3,55,0.00,,---,0.00,VWS V14.01,2013-08-06 02:54:00,
2013-08-05 22:00:00,82.4,65.1,29.32,West,270,12.3,12.3,56,0.00,,---,0.00,VWS V14.01,2013-08-06 03:00:00,
2013-08-05 22:05:00,82.2,64.5,29.32,West,270,12.3,12.3,55,0.00,,---,0.00,VWS V14.01,2013-08-06 03:05:00,
2013-08-05 22:06:00,80.8,67.0,29.32,West,270,12.3,12.3,63,0.00,,---,0.00,VWS V14.01,2013-08-06 03:06:00,
2013-08-05 22:07:00,80.8,67.0,29.32,West,270,12.3,12.3,63,0.00,,---,0.00,VWS V14.01,2013-08-06 03:07:00,
2013-08-05 22:08:00,80.8,66.6,29.32,West,270,12.3,12.3,62,0.00,,---,0.00,VWS V14.01,2013-08-06 03:08:00,
2013-08-05 22:10:00,82.2,65.0,29.32,West,270,12.3,12.3,56,0.00,,---,0.00,VWS V14.01,2013-08-06 03:10:00,
2013-08-05 22:11:00,80.6,66.4,29.32,West,270,12.3,12.3,62,0.00,,---,0.00,VWS V14.01,2013-08-06 03:11:00,
2013-08-05 22:12:00,80.6,66.8,29.32,West,270,12.3,12.3,63,0.00,,---,0.00,VWS V14.01,2013-08-06 03:12:00,
2013-08-05 22:13:00,80.6,66.8,29.32,West,270,12.3,12.3,63,0.00,,---,0.00,VWS V14.01,2013-08-06 03:13:00,
2013-08-05 22:14:00,80.6,66.8,29.32,West,270,12.3,12.3,63,0.00,,---,0.00,VWS V14.01,2013-08-06 03:14:00,
2013-08-05 22:15:00,82.0,65.3,29.32,West,270,12.3,12.3,57,0.00,,---,0.00,VWS V14.01,2013-08-06 03:15:00,
2013-08-05 22:16:00,80.6,66.8,29.32,West,270,12.3,12.3,63,0.00,,---,0.00,VWS V14.01,2013-08-06 03:16:00,
2013-08-05 22:17:00,80.6,67.3,29.32,West,270,12.3,12.3,64,0.00,,---,0.00,VWS V14.01,2013-08-06 03:17:00,
2013-08-05 22:18:00,80.6,67.3,29.32,West,270,12.3,12.3,64,0.00,,---,0.00,VWS V14.01,2013-08-06 03:18:00,
2013-08-05 22:19:00,80.6,67.3,29.32,West,270,12.3,12.3,64,0.00,,---,0.00,VWS V14.01,2013-08-06 03:19:00,
2013-08-05 22:20:00,82.0,64.8,29.32,West,270,12.3,12.3,56,0.00,,---,0.00,VWS V14.01,2013-08-06 03:20:00,
2013-08-05 22:21:00,80.6,66.8,29.32,West,270,12.3,12.3,63,0.00,,---,0.00,VWS V14.01,2013-08-06 03:21:00,
2013-08-05 22:22:00,80.6,67.3,29.32,West,270,12.3,12.3,64,0.00,,---,0.00,VWS V14.01,2013-08-06 03:22:00,
2013-08-05 22:23:00,80.6,67.3,29.32,West,270,12.3,12.3,64,0.00,,---,0.00,VWS V14.01,2013-08-06 03:23:00,
2013-08-05 22:24:00,80.4,67.1,29.32,West,270,12.3,12.3,64,0.00,,---,0.00,VWS V14.01,2013-08-06 03:24:00,
2013-08-05 22:25:00,80.6,67.8,29.32,West,270,12.3,12.3,65,0.00,,---,0.00,VWS V14.01,2013-08-06 03:25:00,
2013-08-05 22:26:00,81.7,66.0,29.32,West,270,12.3,12.3,59,0.00,,---,0.00,VWS V14.01,2013-08-06 03:26:00,
2013-08-05 22:27:00,80.4,67.6,29.32,West,270,12.3,12.3,65,0.00,,---,0.00,VWS V14.01,2013-08-06 03:27:00,
2013-08-05 22:28:00,80.6,67.8,29.32,West,270,12.3,12.3,65,0.00,,---,0.00,VWS V14.01,2013-08-06 03:28:00,
2013-08-05 22:29:00,80.4,67.6,29.32,West,270,12.3,12.3,65,0.00,,---,0.00,VWS V14.01,2013-08-06 03:29:00,
2013-08-05 22:30:00,80.4,67.6,29.32,West,270,12.3,12.3,65,0.00,,---,0.00,VWS V14.01,2013-08-06 03:30:00,
2013-08-05 22:31:00,81.5,65.3,29.32,West,270,12.3,12.3,58,0.00,,---,0.00,VWS V14.01,2013-08-06 03:31:00,
2013-08-05 22:32:00,80.4,67.6,29.29,West,270,12.3,12.3,65,0.00,,---,0.00,VWS V14.01,2013-08-06 03:32:00,
2013-08-05 22:33:00,80.4,67.6,29.29,West,270,12.3,12.3,65,0.00,,---,0.00,VWS V14.01,2013-08-06 03:33:00,
2013-08-05 22:34:00,80.4,67.6,29.29,West,270,12.3,12.3,65,0.00,,---,0.00,VWS V14.01,2013-08-06 03:34:00,
2013-08-05 22:35:00,80.4,67.6,29.29,West,270,12.3,12.3,65,0.00,,---,0.00,VWS V14.01,2013-08-06 03:35:00,
2013-08-05 22:36:00,81.3,67.1,29.32,West,270,12.3,12.3,62,0.00,,---,0.00,VWS V14.01,2013-08-06 03:36:00,
2013-08-05 22:37:00,80.4,67.6,29.29,West,270,12.3,12.3,65,0.00,,---,0.00,VWS V14.01,2013-08-06 03:37:00,
2013-08-05 22:38:00,80.4,67.6,29.29,West,270,12.3,12.3,65,0.00,,---,0.00,VWS V14.01,2013-08-06 03:38:00,
2013-08-05 22:39:00,80.4,67.6,29.29,West,270,12.3,12.3,65,0.00,,---,0.00,VWS V14.01,2013-08-06 03:39:00,
2013-08-05 22:40:00,80.4,67.6,29.29,West,270,12.3,12.3,65,0.00,,---,0.00,VWS V14.01,2013-08-06 03:40:00,
2013-08-05 22:41:00,80.4,67.6,29.29,West,270,12.3,12.3,65,0.00,,---,0.00,VWS V14.01,2013-08-06 03:41:00,
2013-08-05 22:42:00,81.1,66.4,29.32,West,270,12.3,12.3,61,0.00,,---,0.00,VWS V14.01,2013-08-06 03:42:00,
2013-08-05 22:43:00,80.4,67.6,29.29,West,270,12.3,12.3,65,0.00,,---,0.00,VWS V14.01,2013-08-06 03:43:00,
2013-08-05 22:44:00,80.4,67.6,29.29,West,270,12.3,12.3,65,0.00,,---,0.00,VWS V14.01,2013-08-06 03:44:00,
2013-08-05 22:45:00,80.4,67.6,29.29,West,270,12.3,12.3,65,0.00,,---,0.00,VWS V14.01,2013-08-06 03:45:00,
2013-08-05 22:46:00,80.4,67.6,29.29,West,270,12.3,12.3,65,0.00,,---,0.00,VWS V14.01,2013-08-06 03:46:00,
2013-08-05 22:47:00,81.1,66.4,29.29,West,270,12.3,12.3,61,0.00,,---,0.00,VWS V14.01,2013-08-06 03:47:00,
2013-08-05 22:48:00,80.4,67.6,29.29,West,270,12.3,12.3,65,0.00,,---,0.00,VWS V14.01,2013-08-06 03:48:00,
2013-08-05 22:49:00,80.4,67.6,29.29,West,270,12.3,12.3,65,0.00,,---,0.00,VWS V14.01,2013-08-06 03:49:00,
2013-08-05 22:50:00,80.2,67.4,29.29,West,270,12.3,12.3,65,0.00,,---,0.00,VWS V14.01,2013-08-06 03:50:00,
2013-08-05 22:51:00,80.2,67.0,29.29,West,270,12.3,12.3,64,0.00,,---,0.00,VWS V14.01,2013-08-06 03:51:00,
2013-08-05 22:52:00,81.0,66.3,29.29,West,270,12.3,12.3,61,0.00,,---,0.00,VWS V14.01,2013-08-06 03:52:00,
2013-08-05 22:53:00,80.2,67.4,29.29,West,270,12.3,12.3,65,0.00,,---,0.00,VWS V14.01,2013-08-06 03:53:00,
2013-08-05 22:54:00,80.2,67.4,29.29,West,270,12.3,12.3,65,0.00,,---,0.00,VWS V14.01,2013-08-06 03:54:00,
2013-08-05 22:55:00,80.2,67.4,29.29,West,270,12.3,12.3,65,0.00,,---,0.00,VWS V14.01,2013-08-06 03:55:00,
2013-08-05 22:56:00,80.2,68.3,29.29,West,270,12.3,12.3,67,0.00,,---,0.00,VWS V14.01,2013-08-06 03:56:00,
2013-08-05 22:57:00,81.0,67.2,29.29,West,270,12.3,12.3,63,0.00,,---,0.00,VWS V14.01,2013-08-06 03:57:00,
2013-08-05 22:58:00,80.2,67.9,29.29,West,270,12.3,12.3,66,0.00,,---,0.00,VWS V14.01,2013-08-06 03:58:00,
2013-08-05 22:59:00,80.2,67.9,29.29,West,270,12.3,12.3,66,0.00,,---,0.00,VWS V14.01,2013-08-06 03:59:00,
2013-08-05 23:00:00,80.2,67.9,29.29,West,270,12.3,12.3,66,0.00,,---,0.00,VWS V14.01,2013-08-06 04:00:00,
2013-08-05 23:01:00,80.2,67.9,29.29,West,270,12.3,12.3,66,0.00,,---,0.00,VWS V14.01,2013-08-06 04:01:00,
2013-08-05 23:02:00,80.2,67.9,29.29,West,270,12.3,12.3,66,0.00,,---,0.00,VWS V14.01,2013-08-06 04:02:00,
2013-08-05 23:03:00,80.2,67.9,29.29,West,270,12.3,12.3,66,0.00,,---,0.00,VWS V14.01,2013-08-06 04:03:00,
2013-08-05 23:04:00,80.2,67.9,29.29,West,270,12.3,12.3,66,0.00,,---,0.00,VWS V14.01,2013-08-06 04:04:00,
2013-08-05 23:05:00,80.1,67.7,29.29,West,270,12.3,12.3,66,0.00,,---,0.00,VWS V14.01,2013-08-06 04:05:00,
2013-08-05 23:06:00,80.1,67.7,29.29,West,270,12.3,12.3,66,0.00,,---,0.00,VWS V14.01,2013-08-06 04:06:00,
2013-08-05 23:07:00,80.1,67.7,29.29,West,270,12.3,12.3,66,0.00,,---,0.00,VWS V14.01,2013-08-06 04:07:00,
2013-08-05 23:09:00,80.1,67.7,29.29,West,270,12.3,12.3,66,0.00,,---,0.00,VWS V14.01,2013-08-06 04:09:00,
2013-08-05 23:10:00,80.1,67.7,29.29,West,270,12.3,12.3,66,0.00,,---,0.00,VWS V14.01,2013-08-06 04:10:00,
2013-08-05 23:11:00,79.9,67.5,29.29,West,270,12.3,12.3,66,0.00,,---,0.00,VWS V14.01,2013-08-06 04:11:00,
2013-08-05 23:12:00,80.1,67.7,29.29,West,270,12.3,12.3,66,0.00,,---,0.00,VWS V14.01,2013-08-06 04:12:00,
2013-08-05 23:13:00,80.1,68.6,29.29,West,270,12.3,12.3,68,0.00,,---,0.00,VWS V14.01,2013-08-06 04:13:00,
2013-08-05 23:15:00,79.9,67.9,29.29,West,270,12.3,12.3,67,0.00,,---,0.00,VWS V14.01,2013-08-06 04:15:00,
2013-08-05 23:16:00,79.9,68.4,29.29,West,270,12.3,12.3,68,0.00,,---,0.00,VWS V14.01,2013-08-06 04:16:00,
2013-08-05 23:17:00,79.9,67.9,29.32,West,270,12.3,12.3,67,0.00,,---,0.00,VWS V14.01,2013-08-06 04:17:00,
2013-08-05 23:19:00,79.9,67.9,29.32,West,270,12.3,12.3,67,0.00,,---,0.00,VWS V14.01,2013-08-06 04:19:00,
2013-08-05 23:20:00,79.7,67.8,29.32,West,270,12.3,12.3,67,0.00,,---,0.00,VWS V14.01,2013-08-06 04:20:00,
2013-08-05 23:21:00,79.7,67.8,29.32,West,270,12.3,12.3,67,0.00,,---,0.00,VWS V14.01,2013-08-06 04:21:00,
2013-08-05 23:22:00,79.7,67.8,29.32,West,270,12.3,12.3,67,0.00,,---,0.00,VWS V14.01,2013-08-06 04:22:00,
2013-08-05 23:23:00,79.7,67.8,29.32,West,270,12.3,12.3,67,0.00,,---,0.00,VWS V14.01,2013-08-06 04:23:00,
2013-08-05 23:25:00,79.7,67.8,29.32,West,270,12.3,12.3,67,0.00,,---,0.00,VWS V14.01,2013-08-06 04:25:00,
2013-08-05 23:26:00,79.7,67.8,29.32,West,270,12.3,12.3,67,0.00,,---,0.00,VWS V14.01,2013-08-06 04:26:00,
2013-08-05 23:27:00,79.7,67.8,29.32,West,270,12.3,12.3,67,0.00,,---,0.00,VWS V14.01,2013-08-06 04:27:00,
2013-08-05 23:28:00,79.5,67.6,29.32,West,270,12.3,12.3,67,0.00,,---,0.00,VWS V14.01,2013-08-06 04:28:00,
2013-08-05 23:32:00,79.5,67.6,29.32,West,270,12.3,12.3,67,0.00,,---,0.00,VWS V14.01,2013-08-06 04:32:00,
2013-08-05 23:33:00,79.5,68.0,29.32,West,270,12.3,12.3,68,0.00,,---,0.00,VWS V14.01,2013-08-06 04:33:00,
2013-08-05 23:40:00,79.3,67.9,29.32,West,270,12.3,12.3,68,0.00,,---,0.00,VWS V14.01,2013-08-06 04:40:00,
2013-08-05 23:42:00,79.3,68.3,29.32,West,270,12.3,12.3,69,0.00,,---,0.00,VWS V14.01,2013-08-06 04:42:00,